プンタアレナス の空港の天気 - METARとTAF

プンタアレナス空港 ( SCCI / PUQ ) - チリ プンタアレナス
飛行場実況気象(Metar)
観測時間05/28 06:00 CLT (05/28 10:00 UTC)
風向・風速西 7m/s
視程10km以上
天気現象
なし
気温3℃
湿度70%
気圧1011hPa
METARSCCI 281000Z 26013KT CAVOK 03/M02 Q1011 NOSIG
過去の天気等 Google飛行場航空写真 Wunderground天気予報

過去48時間のMETAR

飛行場予報(TAF)
発表時間: 5/28 00:13 CLT (5/28 04:13 UTC)
予報対象時間: 28日2時 CLT ~ 29日2時 CLT
風向・風速西南西 8m/s 瞬間風速 13m/s
視程10km以上
少しの雲 雲底高度 910m
28日10時 CLT ~ 28日18時 CLT に一時的に
全天の8割程度の雲 雲底高度 610m
TAF SCCI 280413Z 2806/2906 25015G25KT 9999 FEW030 TN02/2811Z TX07/2818Z
TEMPO 2814/2822 BKN020